Time;durP1;ratioP1;P1;durP2;ratioP2;P2;SDS_P1;SDS_P2;PMS_P1;PMS_P2;Temp;Humidity;BMP_temperature;BMP_pressure;BME280_temperature;BME280_humidity;BME280_pressure;Samples;Min_cycle;Max_cycle;Signal;HPM_P1;HPM_P2
2023/12/28 00:01:25;;;;;;;86.95;54.60;;;;;;;;;;5002400;28;20038;-48
2023/12/28 00:03:51;;;;;;;81.45;53.75;;;;;;;;;;5012082;28;20022;-51
2023/12/28 00:06:17;;;;;;;75.57;53.42;;;;;;;;;;5012035;28;20504;-53
2023/12/28 00:08:43;;;;;;;78.22;55.22;;;;;;;;;;5005780;28;20125;-48
2023/12/28 00:11:09;;;;;;;78.07;56.60;;;;;;;;;;4993663;28;20462;-52
2023/12/28 00:13:36;;;;;;;83.78;53.45;;;;;;;;;;4996332;28;20080;-48
2023/12/28 00:16:02;;;;;;;72.87;49.17;;;;;;;;;;4970645;28;20169;-48
2023/12/28 00:18:28;;;;;;;73.35;50.47;;;;;;;;;;4992370;28;20571;-52
2023/12/28 00:20:54;;;;;;;75.18;52.17;;;;;;;;;;4993725;28;20428;-53
2023/12/28 00:23:20;;;;;;;76.93;49.60;;;;;;;;;;4998977;28;20034;-52
2023/12/28 00:25:47;;;;;;;66.13;46.22;;;;;;;;;;4996367;28;20065;-51
2023/12/28 00:28:13;;;;;;;67.50;48.27;;;;;;;;;;4992486;28;20030;-53
2023/12/28 00:30:39;;;;;;;70.88;47.67;;;;;;;;;;4979465;28;20029;-50
2023/12/28 00:33:05;;;;;;;74.30;48.03;;;;;;;;;;5011810;28;20128;-48
2023/12/28 00:35:33;;;;;;;;;;;;;;;;;;4985338;28;20113;-49
2023/12/28 00:37:59;;;;;;;67.60;47.90;;;;;;;;;;4974708;28;19956;-51
2023/12/28 00:40:25;;;;;;;71.97;48.78;;;;;;;;;;4970023;28;20057;-51
2023/12/28 00:42:51;;;;;;;66.93;47.72;;;;;;;;;;4974395;28;20035;-53
2023/12/28 00:45:17;;;;;;;71.80;50.58;;;;;;;;;;4984973;28;20031;-50
2023/12/28 00:47:43;;;;;;;66.78;49.75;;;;;;;;;;4984740;28;20026;-50
2023/12/28 00:50:14;;;;;;;76.40;46.13;;;;;;;;;;5003945;28;20038;-48
2023/12/28 00:52:41;;;;;;;74.20;51.17;;;;;;;;;;4993302;28;20065;-51
2023/12/28 00:55:07;;;;;;;77.10;53.17;;;;;;;;;;4969377;28;20018;-48
2023/12/28 00:57:34;;;;;;;74.75;51.05;;;;;;;;;;5006407;28;20089;-48
2023/12/28 01:00:01;;;;;;;71.47;51.85;;;;;;;;;;4967447;28;20056;-52
2023/12/28 01:02:27;;;;;;;79.80;53.83;;;;;;;;;;5001968;28;20029;-53
2023/12/28 01:04:54;;;;;;;73.72;51.90;;;;;;;;;;4977049;28;20492;-48
2023/12/28 01:07:20;;;;;;;76.60;49.97;;;;;;;;;;4974183;28;20034;-51
2023/12/28 01:09:46;;;;;;;69.30;46.92;;;;;;;;;;4975379;28;20022;-51
2023/12/28 01:12:12;;;;;;;65.75;47.28;;;;;;;;;;4992777;28;20415;-47
2023/12/28 01:14:38;;;;;;;68.30;48.95;;;;;;;;;;4984147;28;20090;-49
2023/12/28 01:17:05;;;;;;;68.00;48.72;;;;;;;;;;5008083;28;20044;-47
2023/12/28 01:19:31;;;;;;;65.35;47.55;;;;;;;;;;4991309;28;20084;-48
2023/12/28 01:21:57;;;;;;;70.22;47.60;;;;;;;;;;4995101;28;20026;-51
2023/12/28 01:24:24;;;;;;;68.55;46.58;;;;;;;;;;4957784;28;20026;-55
2023/12/28 01:26:50;;;;;;;62.38;45.42;;;;;;;;;;4986216;28;20060;-49
2023/12/28 01:29:16;;;;;;;76.13;49.15;;;;;;;;;;5008542;28;20207;-48
2023/12/28 01:31:42;;;;;;;76.38;50.47;;;;;;;;;;4996452;28;20272;-49
2023/12/28 01:34:09;;;;;;;70.25;48.35;;;;;;;;;;4983362;28;20053;-48
2023/12/28 01:36:36;;;;;;;66.68;46.13;;;;;;;;;;5009445;28;20113;-52
2023/12/28 01:39:02;;;;;;;63.27;46.53;;;;;;;;;;5027433;28;20105;-49
2023/12/28 01:41:29;;;;;;;67.22;44.53;;;;;;;;;;4996580;28;20676;-50
2023/12/28 01:43:55;;;;;;;66.70;44.80;;;;;;;;;;4996464;28;20400;-50
2023/12/28 01:46:22;;;;;;;68.43;46.65;;;;;;;;;;4985276;28;20038;-52
2023/12/28 01:48:49;;;;;;;66.55;48.47;;;;;;;;;;4999747;28;20496;-50
2023/12/28 01:51:16;;;;;;;68.50;47.80;;;;;;;;;;4976190;28;20038;-48
2023/12/28 01:53:43;;;;;;;69.35;48.10;;;;;;;;;;5021387;28;20030;-49
2023/12/28 01:56:09;;;;;;;;;;;;;;;;;;4997437;28;20077;-48
2023/12/28 01:58:38;;;;;;;68.35;46.33;;;;;;;;;;5022798;28;20091;-47
2023/12/28 02:01:04;;;;;;;68.03;46.22;;;;;;;;;;4997805;28;20105;-50
2023/12/28 02:03:31;;;;;;;69.87;46.73;;;;;;;;;;4980469;28;20038;-48
2023/12/28 02:05:58;;;;;;;74.30;51.58;;;;;;;;;;4983990;28;20031;-53
2023/12/28 02:08:24;;;;;;;68.38;45.85;;;;;;;;;;4977162;28;20065;-48
2023/12/28 02:10:50;;;;;;;73.00;48.58;;;;;;;;;;4993441;28;20038;-50
2023/12/28 02:13:17;;;;;;;74.47;47.05;;;;;;;;;;4978547;28;20033;-50
2023/12/28 02:15:47;;;;;;;72.82;45.42;;;;;;;;;;4982195;28;20030;-48
2023/12/28 02:18:18;;;;;;;62.38;44.92;;;;;;;;;;4996265;28;20397;-48
2023/12/28 02:20:45;;;;;;;65.78;47.38;;;;;;;;;;5011020;28;20124;-50
2023/12/28 02:23:11;;;;;;;70.38;47.40;;;;;;;;;;4978864;28;20037;-50
2023/12/28 02:25:37;;;;;;;71.57;48.28;;;;;;;;;;5028129;28;20018;-48
2023/12/28 02:28:03;;;;;;;66.57;45.88;;;;;;;;;;5013856;28;20029;-50
2023/12/28 02:30:30;;;;;;;72.10;48.88;;;;;;;;;;4991395;28;20022;-51
2023/12/28 02:33:19;;;;;;;62.33;45.70;;;;;;;;;;4981550;28;20519;-48
2023/12/28 02:35:52;;;;;;;62.83;44.45;;;;;;;;;;5010007;28;20103;-48
2023/12/28 02:38:18;;;;;;;64.90;46.53;;;;;;;;;;5012465;28;20062;-52
2023/12/28 02:40:45;;;;;;;66.80;45.50;;;;;;;;;;5003218;28;20023;-48
2023/12/28 02:43:12;;;;;;;70.53;48.33;;;;;;;;;;4977121;28;20515;-48
2023/12/28 02:45:39;;;;;;;69.55;48.63;;;;;;;;;;4966290;28;20117;-48
2023/12/28 02:48:06;;;;;;;70.80;47.58;;;;;;;;;;5011562;28;20508;-48
2023/12/28 02:50:32;;;;;;;65.43;47.58;;;;;;;;;;5007537;28;20489;-48
2023/12/28 02:52:59;;;;;;;70.97;47.90;;;;;;;;;;4991640;28;20452;-47
2023/12/28 02:55:25;;;;;;;72.50;47.88;;;;;;;;;;4981204;28;20038;-51
2023/12/28 02:57:54;;;;;;;64.43;48.50;;;;;;;;;;4993963;28;20058;-50
2023/12/28 03:00:21;;;;;;;75.22;47.55;;;;;;;;;;4988223;28;20368;-48
2023/12/28 03:02:47;;;;;;;69.07;47.40;;;;;;;;;;5000002;28;20045;-52
2023/12/28 03:05:13;;;;;;;81.70;50.43;;;;;;;;;;4994980;28;20113;-54
2023/12/28 03:07:40;;;;;;;66.88;46.97;;;;;;;;;;4978016;28;20061;-49
2023/12/28 03:10:07;;;;;;;77.35;48.85;;;;;;;;;;5009687;28;20492;-49
2023/12/28 03:12:33;;;;;;;73.90;47.25;;;;;;;;;;4975600;28;20494;-49
2023/12/28 03:14:59;;;;;;;75.50;48.73;;;;;;;;;;4990879;28;20463;-53
2023/12/28 03:17:26;;;;;;;68.22;44.65;;;;;;;;;;4976517;28;20089;-51
2023/12/28 03:19:52;;;;;;;74.07;48.45;;;;;;;;;;5012297;28;20029;-49
2023/12/28 03:22:19;;;;;;;82.18;48.85;;;;;;;;;;4996790;28;20022;-47
2023/12/28 03:24:45;;;;;;;73.72;48.20;;;;;;;;;;4995490;28;20042;-47
2023/12/28 03:27:11;;;;;;;69.43;47.17;;;;;;;;;;4995282;28;20400;-48
2023/12/28 03:29:38;;;;;;;75.95;49.67;;;;;;;;;;5028111;28;20033;-50
2023/12/28 03:32:04;;;;;;;66.85;46.28;;;;;;;;;;4993754;28;20076;-51
2023/12/28 03:34:30;;;;;;;72.60;49.70;;;;;;;;;;4984145;28;20056;-48
2023/12/28 03:36:57;;;;;;;74.47;49.33;;;;;;;;;;4994368;28;20034;-50
2023/12/28 03:39:24;;;;;;;70.80;45.97;;;;;;;;;;4992490;28;20034;-50
2023/12/28 03:41:50;;;;;;;70.07;46.83;;;;;;;;;;5004032;28;20025;-51
2023/12/28 03:44:16;;;;;;;72.68;43.08;;;;;;;;;;5009250;28;20432;-49
2023/12/28 03:46:43;;;;;;;65.93;44.35;;;;;;;;;;4985808;28;20025;-50
2023/12/28 03:49:09;;;;;;;69.53;47.03;;;;;;;;;;5002867;28;20026;-49
2023/12/28 03:51:35;;;;;;;64.07;44.63;;;;;;;;;;4982377;28;20030;-50
2023/12/28 03:54:01;;;;;;;69.30;44.10;;;;;;;;;;4998482;28;20030;-48
2023/12/28 03:56:30;;;;;;;64.68;43.15;;;;;;;;;;4981182;28;20038;-48
2023/12/28 03:58:56;;;;;;;69.10;46.38;;;;;;;;;;4992675;28;20037;-48
2023/12/28 04:01:22;;;;;;;70.40;45.28;;;;;;;;;;4994790;28;20392;-48
2023/12/28 04:03:49;;;;;;;;;;;;;;;;;;4985044;28;20030;-48
2023/12/28 04:06:16;;;;;;;67.53;46.03;;;;;;;;;;4993919;28;19910;-47
2023/12/28 04:08:42;;;;;;;66.55;45.08;;;;;;;;;;5012152;28;20028;-48
2023/12/28 04:11:09;;;;;;;69.03;47.25;;;;;;;;;;5011399;28;20072;-48
2023/12/28 04:13:35;;;;;;;69.43;47.92;;;;;;;;;;4980164;28;20029;-48
2023/12/28 04:16:02;;;;;;;62.95;45.38;;;;;;;;;;4994581;28;20037;-48
2023/12/28 04:18:28;;;;;;;62.72;44.78;;;;;;;;;;5012152;28;20022;-47
2023/12/28 04:20:54;;;;;;;63.90;45.50;;;;;;;;;;4977768;28;20062;-51
2023/12/28 04:23:21;;;;;;;62.37;45.00;;;;;;;;;;4959087;28;20037;-49
2023/12/28 04:25:47;;;;;;;65.57;45.85;;;;;;;;;;5003222;28;20256;-50
2023/12/28 04:28:13;;;;;;;64.50;42.37;;;;;;;;;;4991147;28;20026;-48
2023/12/28 04:30:40;;;;;;;59.95;43.42;;;;;;;;;;4999019;28;20032;-49
2023/12/28 04:33:06;;;;;;;68.20;44.92;;;;;;;;;;4992480;28;20069;-51
2023/12/28 04:35:32;;;;;;;56.25;42.50;;;;;;;;;;5001072;28;20439;-48
2023/12/28 04:37:58;;;;;;;60.58;41.65;;;;;;;;;;4994353;28;20136;-51
2023/12/28 04:40:24;;;;;;;64.20;44.10;;;;;;;;;;4990877;28;20401;-49
2023/12/28 04:42:51;;;;;;;62.90;43.85;;;;;;;;;;4974862;28;20058;-49
2023/12/28 04:45:17;;;;;;;64.60;43.63;;;;;;;;;;4981007;28;20037;-48
2023/12/28 04:47:43;;;;;;;63.95;44.33;;;;;;;;;;4993860;28;20373;-48
2023/12/28 04:50:10;;;;;;;67.07;42.90;;;;;;;;;;5010101;28;20049;-43
2023/12/28 04:52:36;;;;;;;68.95;41.47;;;;;;;;;;5000026;28;20499;-52
2023/12/28 04:55:02;;;;;;;57.33;40.40;;;;;;;;;;5008570;28;20059;-48
2023/12/28 04:57:28;;;;;;;65.47;41.53;;;;;;;;;;4994144;28;20037;-49
2023/12/28 04:59:54;;;;;;;56.50;41.03;;;;;;;;;;5010163;28;20057;-47
2023/12/28 05:02:21;;;;;;;52.92;40.15;;;;;;;;;;5011844;28;20038;-49
2023/12/28 05:04:47;;;;;;;56.17;40.03;;;;;;;;;;5012244;28;20030;-48
2023/12/28 05:07:13;;;;;;;58.80;42.35;;;;;;;;;;5011738;28;20033;-48
2023/12/28 05:09:39;;;;;;;57.70;39.70;;;;;;;;;;5011414;28;20452;-48
2023/12/28 05:12:05;;;;;;;59.53;41.90;;;;;;;;;;4996035;28;20037;-49
2023/12/28 05:14:33;;;;;;;59.77;39.87;;;;;;;;;;4998188;28;20034;-51
2023/12/28 05:16:59;;;;;;;54.03;39.45;;;;;;;;;;5015643;28;20311;-48
2023/12/28 05:19:25;;;;;;;61.15;39.95;;;;;;;;;;4997600;28;20085;-50
2023/12/28 05:21:51;;;;;;;58.17;39.42;;;;;;;;;;5015739;28;20026;-47
2023/12/28 05:24:17;;;;;;;59.30;41.10;;;;;;;;;;5015636;28;20314;-48
2023/12/28 05:26:44;;;;;;;54.95;39.03;;;;;;;;;;5030729;28;20497;-48
2023/12/28 05:29:10;;;;;;;56.33;40.10;;;;;;;;;;5015183;28;20026;-50
2023/12/28 05:31:36;;;;;;;58.67;40.13;;;;;;;;;;5015383;28;20026;-49
2023/12/28 05:34:02;;;;;;;57.70;39.90;;;;;;;;;;4997553;28;20493;-48
2023/12/28 05:36:28;;;;;;;58.05;38.92;;;;;;;;;;5015290;28;20025;-48
2023/12/28 05:38:54;;;;;;;61.03;41.22;;;;;;;;;;5014919;28;20484;-48
2023/12/28 05:41:21;;;;;;;57.47;39.28;;;;;;;;;;4997467;28;20034;-50
2023/12/28 05:43:47;;;;;;;57.08;40.40;;;;;;;;;;5015216;28;20044;-48
2023/12/28 05:46:13;;;;;;;88.53;44.63;;;;;;;;;;5015088;28;20103;-48
2023/12/28 05:48:40;;;;;;;139.90;45.97;;;;;;;;;;5014817;28;20032;-49
2023/12/28 05:51:06;;;;;;;107.25;45.17;;;;;;;;;;5014995;28;20018;-48
2023/12/28 05:53:32;;;;;;;79.47;40.95;;;;;;;;;;5030237;28;20037;-48
2023/12/28 05:56:03;;;;;;;78.30;42.37;;;;;;;;;;5015024;28;20732;-48
2023/12/28 05:58:29;;;;;;;67.97;40.28;;;;;;;;;;5014792;28;20048;-50
2023/12/28 06:00:55;;;;;;;56.55;41.95;;;;;;;;;;5014675;28;20029;-48
2023/12/28 06:03:21;;;;;;;50.93;38.03;;;;;;;;;;5030080;28;20475;-48
2023/12/28 06:05:48;;;;;;;59.53;40.40;;;;;;;;;;5014739;28;20435;-48
2023/12/28 06:08:14;;;;;;;60.38;41.00;;;;;;;;;;5014509;28;20034;-48
2023/12/28 06:10:40;;;;;;;62.65;41.83;;;;;;;;;;5014628;28;20483;-48
2023/12/28 06:13:07;;;;;;;62.47;41.53;;;;;;;;;;5014677;28;20092;-48
2023/12/28 06:15:33;;;;;;;54.37;39.57;;;;;;;;;;5014551;28;20260;-51
2023/12/28 06:17:59;;;;;;;59.63;40.60;;;;;;;;;;5014349;28;20392;-48
2023/12/28 06:20:25;;;;;;;59.00;39.00;;;;;;;;;;5014365;28;20030;-49
2023/12/28 06:22:51;;;;;;;61.67;41.10;;;;;;;;;;5013757;28;20026;-48
2023/12/28 06:25:17;;;;;;;62.95;40.53;;;;;;;;;;5014390;28;20101;-48
2023/12/28 06:27:44;;;;;;;59.40;41.50;;;;;;;;;;5014436;28;20030;-47
2023/12/28 06:30:10;;;;;;;59.30;41.70;;;;;;;;;;5014112;28;20396;-48
2023/12/28 06:32:36;;;;;;;58.65;43.67;;;;;;;;;;5014103;28;20057;-48
2023/12/28 06:35:03;;;;;;;63.33;41.78;;;;;;;;;;5014293;28;20030;-48
2023/12/28 06:37:29;;;;;;;55.10;38.77;;;;;;;;;;4996929;28;20040;-49
2023/12/28 06:39:55;;;;;;;57.08;41.05;;;;;;;;;;5013835;28;20026;-48
2023/12/28 06:42:21;;;;;;;59.33;41.03;;;;;;;;;;5014108;28;20026;-50
2023/12/28 06:44:47;;;;;;;58.85;41.28;;;;;;;;;;5014010;28;20025;-50
2023/12/28 06:47:14;;;;;;;54.00;40.88;;;;;;;;;;5014144;28;20030;-52
2023/12/28 06:49:40;;;;;;;57.30;41.33;;;;;;;;;;5013650;28;20034;-49
2023/12/28 06:52:06;;;;;;;58.63;41.85;;;;;;;;;;5029133;28;20030;-53
2023/12/28 06:54:32;;;;;;;54.78;40.00;;;;;;;;;;5029203;28;20116;-49
2023/12/28 06:56:58;;;;;;;58.00;42.60;;;;;;;;;;5013758;28;20373;-51
2023/12/28 06:59:25;;;;;;;57.83;42.58;;;;;;;;;;5013188;28;20514;-49
2023/12/28 07:01:51;;;;;;;62.80;40.50;;;;;;;;;;5054260;23;20037;-49
2023/12/28 07:04:17;;;;;;;54.10;38.58;;;;;;;;;;5033296;28;20026;-49
2023/12/28 07:06:43;;;;;;;70.37;38.23;;;;;;;;;;5033532;28;20467;-53
2023/12/28 07:09:10;;;;;;;62.45;40.83;;;;;;;;;;5015259;28;20032;-49
2023/12/28 07:11:36;;;;;;;62.20;39.03;;;;;;;;;;5024020;28;20029;-51
2023/12/28 07:14:02;;;;;;;63.67;41.10;;;;;;;;;;5015563;28;20257;-50
2023/12/28 07:16:29;;;;;;;65.97;41.53;;;;;;;;;;5013459;28;20030;-49
2023/12/28 07:18:55;;;;;;;62.55;42.58;;;;;;;;;;5011907;28;20053;-49
2023/12/28 07:21:21;;;;;;;62.10;42.25;;;;;;;;;;5013238;28;20026;-49
2023/12/28 07:23:49;;;;;;;63.25;41.28;;;;;;;;;;5013156;28;20033;-49
2023/12/28 07:26:16;;;;;;;65.43;40.38;;;;;;;;;;5011861;28;20164;-47
2023/12/28 07:28:44;;;;;;;56.25;38.08;;;;;;;;;;5013021;28;20550;-49
2023/12/28 07:31:10;;;;;;;58.13;40.22;;;;;;;;;;5013085;28;20396;-48
2023/12/28 07:33:38;;;;;;;63.03;41.90;;;;;;;;;;5012018;28;20599;-50
2023/12/28 07:36:06;;;;;;;;;;;;;;;;;;5012335;28;20476;-48
2023/12/28 07:38:32;;;;;;;55.65;39.72;;;;;;;;;;5013016;28;19998;-47
2023/12/28 07:40:58;;;;;;;59.30;38.08;;;;;;;;;;5011661;28;20041;-47
2023/12/28 07:43:24;;;;;;;56.58;40.53;;;;;;;;;;5013142;28;20489;-47
2023/12/28 07:45:51;;;;;;;61.03;40.67;;;;;;;;;;5012813;28;20440;-49
2023/12/28 07:48:17;;;;;;;57.72;39.15;;;;;;;;;;5012723;28;20032;-48
2023/12/28 07:50:43;;;;;;;63.33;41.85;;;;;;;;;;5012883;28;20068;-47
2023/12/28 07:53:10;;;;;;;58.95;40.63;;;;;;;;;;5012894;28;20472;-47
2023/12/28 07:55:36;;;;;;;58.17;41.15;;;;;;;;;;5012706;28;20036;-47
2023/12/28 07:58:02;;;;;;;60.60;41.08;;;;;;;;;;5012555;28;20038;-47
2023/12/28 08:00:29;;;;;;;61.17;40.30;;;;;;;;;;5011081;28;20687;-48
2023/12/28 08:02:55;;;;;;;65.93;41.17;;;;;;;;;;5012685;28;20029;-47
2023/12/28 08:05:21;;;;;;;56.38;38.45;;;;;;;;;;5012668;28;20033;-48
2023/12/28 08:07:47;;;;;;;57.25;39.38;;;;;;;;;;5011371;28;20113;-48
2023/12/28 08:10:13;;;;;;;55.90;40.45;;;;;;;;;;5012138;28;20034;-49
2023/12/28 08:12:40;;;;;;;55.67;40.13;;;;;;;;;;5013050;28;20052;-47
2023/12/28 08:15:06;;;;;;;55.75;41.13;;;;;;;;;;5012601;28;20408;-47
2023/12/28 08:17:32;;;;;;;57.83;38.65;;;;;;;;;;5012499;28;20026;-47
2023/12/28 08:19:59;;;;;;;58.17;40.00;;;;;;;;;;5012142;28;20033;-47
2023/12/28 08:22:25;;;;;;;60.22;40.53;;;;;;;;;;5012447;28;20025;-47
2023/12/28 08:24:51;;;;;;;58.40;41.07;;;;;;;;;;5016822;28;20025;-47
2023/12/28 08:27:17;;;;;;;59.47;40.30;;;;;;;;;;5052281;28;20049;-47
2023/12/28 08:29:43;;;;;;;51.83;37.33;;;;;;;;;;5051667;28;20033;-49
2023/12/28 08:32:10;;;;;;;58.10;39.47;;;;;;;;;;5051931;28;20029;-47
2023/12/28 08:34:37;;;;;;;60.58;40.78;;;;;;;;;;5051867;28;20263;-47
2023/12/28 08:37:03;;;;;;;53.53;37.90;;;;;;;;;;5051870;28;20029;-48
2023/12/28 08:39:29;;;;;;;53.67;39.35;;;;;;;;;;5051519;28;20051;-49
2023/12/28 08:41:56;;;;;;;56.92;37.13;;;;;;;;;;5010966;28;20050;-47
2023/12/28 08:44:22;;;;;;;49.95;37.72;;;;;;;;;;5012158;28;20029;-47
2023/12/28 08:46:48;;;;;;;64.95;40.75;;;;;;;;;;5011978;28;20053;-48
2023/12/28 08:49:15;;;;;;;59.90;40.22;;;;;;;;;;5012451;28;20072;-51
2023/12/28 08:51:42;;;;;;;62.38;40.28;;;;;;;;;;5012048;28;20026;-49
2023/12/28 08:54:09;;;;;;;53.22;39.17;;;;;;;;;;5010800;28;20506;-50
2023/12/28 08:56:35;;;;;;;55.30;40.00;;;;;;;;;;5011967;28;20054;-48
2023/12/28 08:59:02;;;;;;;57.17;37.63;;;;;;;;;;5011685;28;20041;-51
2023/12/28 09:01:29;;;;;;;51.60;39.60;;;;;;;;;;5011681;28;20129;-47
2023/12/28 09:03:56;;;;;;;51.28;38.88;;;;;;;;;;5011922;28;20563;-48
2023/12/28 09:06:22;;;;;;;56.97;41.87;;;;;;;;;;5011915;28;20019;-52
2023/12/28 09:08:50;;;;;;;53.38;39.70;;;;;;;;;;5011833;28;20033;-50
2023/12/28 09:11:16;;;;;;;56.05;41.40;;;;;;;;;;5011856;28;20052;-50
2023/12/28 09:13:43;;;;;;;56.63;40.30;;;;;;;;;;5012313;28;20404;-47
2023/12/28 09:16:11;;;;;;;58.45;40.22;;;;;;;;;;5012156;28;20381;-51
2023/12/28 09:18:37;;;;;;;56.85;40.88;;;;;;;;;;5011622;28;20503;-47
2023/12/28 09:21:07;;;;;;;58.42;37.85;;;;;;;;;;5011774;28;20026;-50
2023/12/28 09:23:34;;;;;;;56.63;40.47;;;;;;;;;;5011944;28;20026;-47
2023/12/28 09:26:03;;;;;;;55.15;38.58;;;;;;;;;;5011564;28;20030;-47
2023/12/28 09:28:29;;;;;;;54.60;41.50;;;;;;;;;;5011496;28;20107;-49
2023/12/28 09:30:55;;;;;;;60.70;40.67;;;;;;;;;;5011616;28;20033;-48
2023/12/28 09:33:22;;;;;;;59.00;41.47;;;;;;;;;;5010536;28;20092;-47
2023/12/28 09:35:48;;;;;;;59.35;39.83;;;;;;;;;;5010306;28;20036;-47
2023/12/28 09:38:14;;;;;;;66.05;41.20;;;;;;;;;;5011248;28;20030;-51
2023/12/28 09:40:44;;;;;;;63.88;43.17;;;;;;;;;;5011481;28;20575;-51
2023/12/28 09:43:14;;;;;;;61.60;41.03;;;;;;;;;;5011583;28;20077;-47
2023/12/28 09:45:40;;;;;;;55.20;40.05;;;;;;;;;;5010190;28;20374;-47
2023/12/28 09:48:06;;;;;;;56.43;41.47;;;;;;;;;;5010308;28;20030;-50
2023/12/28 09:50:33;;;;;;;55.67;41.53;;;;;;;;;;5011569;28;20287;-51
2023/12/28 09:52:59;;;;;;;57.80;41.47;;;;;;;;;;5011698;28;20777;-48
2023/12/28 09:55:25;;;;;;;55.05;41.22;;;;;;;;;;5010436;28;20746;-48
2023/12/28 09:57:52;;;;;;;63.25;43.80;;;;;;;;;;5011429;28;20469;-47
2023/12/28 10:00:18;;;;;;;56.70;40.42;;;;;;;;;;5013586;28;20038;-47
2023/12/28 10:02:45;;;;;;;53.40;39.73;;;;;;;;;;5013697;28;20491;-49
2023/12/28 10:05:15;;;;;;;56.65;41.80;;;;;;;;;;4997484;28;20432;-48
2023/12/28 10:07:43;;;;;;;64.70;42.83;;;;;;;;;;5014887;28;20686;-47
2023/12/28 10:10:09;;;;;;;56.00;40.33;;;;;;;;;;4996992;28;20038;-47
2023/12/28 10:12:36;;;;;;;55.65;41.63;;;;;;;;;;5014878;28;20411;-48
2023/12/28 10:15:02;;;;;;;57.95;41.33;;;;;;;;;;5013585;28;20117;-47
2023/12/28 10:17:28;;;;;;;63.63;44.67;;;;;;;;;;5014821;28;20045;-47
2023/12/28 10:19:55;;;;;;;60.60;43.70;;;;;;;;;;5013200;28;20038;-47
2023/12/28 10:22:22;;;;;;;63.42;44.95;;;;;;;;;;5014750;28;20092;-47
2023/12/28 10:24:48;;;;;;;62.20;43.60;;;;;;;;;;5015038;28;20040;-51
2023/12/28 10:27:14;;;;;;;56.40;41.42;;;;;;;;;;5014889;28;20026;-47
2023/12/28 10:29:41;;;;;;;65.20;43.60;;;;;;;;;;5013222;28;20061;-47
2023/12/28 10:32:07;;;;;;;57.88;43.35;;;;;;;;;;5014320;28;20105;-48
2023/12/28 10:34:34;;;;;;;59.80;43.33;;;;;;;;;;5014232;28;20515;-48
2023/12/28 10:37:01;;;;;;;56.05;43.40;;;;;;;;;;5014220;28;20116;-49
2023/12/28 10:39:32;;;;;;;57.88;42.13;;;;;;;;;;5013952;28;20036;-49
2023/12/28 10:42:00;;;;;;;62.50;42.28;;;;;;;;;;5014043;28;20072;-51
2023/12/28 10:44:28;;;;;;;57.20;41.30;;;;;;;;;;5014001;28;20022;-49
2023/12/28 10:46:58;;;;;;;62.10;41.70;;;;;;;;;;5013980;28;20476;-48
2023/12/28 10:49:25;;;;;;;61.17;42.75;;;;;;;;;;5013780;28;20484;-47
2023/12/28 10:51:52;;;;;;;55.47;39.13;;;;;;;;;;5013767;28;20026;-51
2023/12/28 10:54:19;;;;;;;;;;;;;;;;;;5014340;28;20036;-49
2023/12/28 10:56:47;;;;;;;57.70;41.63;;;;;;;;;;5013787;28;19909;-50
2023/12/28 10:59:16;;;;;;;55.30;39.85;;;;;;;;;;5013524;28;20033;-47
2023/12/28 11:01:43;;;;;;;54.63;41.28;;;;;;;;;;5013508;28;20088;-51
2023/12/28 11:04:30;;;;;;;51.37;39.30;;;;;;;;;;5012540;28;20033;-48
2023/12/28 11:06:56;;;;;;;59.72;41.13;;;;;;;;;;4995866;28;20029;-51
2023/12/28 11:09:24;;;;;;;52.58;39.88;;;;;;;;;;5012961;28;20041;-47
2023/12/28 11:11:51;;;;;;;50.50;40.78;;;;;;;;;;5012304;28;20064;-48
2023/12/28 11:14:18;;;;;;;51.58;39.28;;;;;;;;;;5013444;28;20026;-49
2023/12/28 11:16:45;;;;;;;57.50;41.63;;;;;;;;;;5013453;28;20025;-52
2023/12/28 11:19:12;;;;;;;56.20;38.30;;;;;;;;;;5018635;28;20521;-47
2023/12/28 11:21:39;;;;;;;61.13;40.13;;;;;;;;;;5028063;28;20095;-51
2023/12/28 11:24:05;;;;;;;54.17;38.93;;;;;;;;;;5022143;28;20028;-52
2023/12/28 11:26:32;;;;;;;53.45;38.08;;;;;;;;;;5021231;28;20777;-52
2023/12/28 11:29:04;;;;;;;49.63;36.03;;;;;;;;;;5025137;28;20495;-51
2023/12/28 11:31:34;;;;;;;51.38;38.33;;;;;;;;;;5023703;28;20049;-52
2023/12/28 11:34:01;;;;;;;47.22;38.13;;;;;;;;;;5030896;28;20105;-52
2023/12/28 11:36:35;;;;;;;45.88;35.42;;;;;;;;;;5026926;28;20099;-51
2023/12/28 11:39:06;;;;;;;45.90;33.35;;;;;;;;;;5023371;28;20610;-47
2023/12/28 11:41:33;;;;;;;46.95;34.17;;;;;;;;;;5011530;28;20504;-47
2023/12/28 11:44:02;;;;;;;40.22;31.77;;;;;;;;;;5013739;28;20443;-49
2023/12/28 11:46:29;;;;;;;46.97;31.27;;;;;;;;;;5021272;28;20029;-48
2023/12/28 11:48:55;;;;;;;;;;;;;;;;;;5024165;28;20026;-46
2023/12/28 11:51:22;;;;;;;39.28;29.58;;;;;;;;;;5026053;28;19967;-47
2023/12/28 11:53:48;;;;;;;40.95;31.45;;;;;;;;;;5021901;28;20036;-51
2023/12/28 11:56:16;;;;;;;41.50;31.02;;;;;;;;;;5029210;28;20083;-49
2023/12/28 11:58:45;;;;;;;44.28;32.15;;;;;;;;;;5025454;28;20048;-50
2023/12/28 12:01:15;;;;;;;41.63;32.33;;;;;;;;;;5027304;28;20045;-50
2023/12/28 12:03:41;;;;;;;46.75;33.15;;;;;;;;;;5018235;28;20658;-50
2023/12/28 12:06:07;;;;;;;43.37;30.60;;;;;;;;;;5012519;28;20033;-52
2023/12/28 12:08:33;;;;;;;43.97;33.13;;;;;;;;;;5025526;28;20519;-51
2023/12/28 12:11:01;;;;;;;45.78;31.13;;;;;;;;;;5024828;28;20033;-48
2023/12/28 12:13:28;;;;;;;43.13;32.72;;;;;;;;;;5016715;28;20030;-47
2023/12/28 12:15:54;;;;;;;43.15;32.03;;;;;;;;;;5012177;28;20022;-49
2023/12/28 12:18:20;;;;;;;40.15;32.80;;;;;;;;;;5015405;28;20057;-49
2023/12/28 12:20:46;;;;;;;39.17;30.23;;;;;;;;;;5015100;28;20040;-49
2023/12/28 12:23:12;;;;;;;42.42;31.65;;;;;;;;;;5009342;28;20026;-51
2023/12/28 12:25:39;;;;;;;42.60;31.00;;;;;;;;;;5027909;28;20113;-48
2023/12/28 12:28:05;;;;;;;38.45;29.70;;;;;;;;;;5028025;28;20043;-50
2023/12/28 12:30:31;;;;;;;36.70;28.60;;;;;;;;;;5027135;28;20033;-48
2023/12/28 12:32:57;;;;;;;57.92;41.67;;;;;;;;;;5029187;28;20555;-49
2023/12/28 12:35:24;;;;;;;42.43;30.13;;;;;;;;;;5030356;28;20527;-51
2023/12/28 12:37:51;;;;;;;45.72;31.17;;;;;;;;;;5028246;28;20030;-48
2023/12/28 12:40:19;;;;;;;40.15;30.02;;;;;;;;;;5030086;28;20084;-51
2023/12/28 12:42:55;;;;;;;39.03;28.85;;;;;;;;;;5013372;28;20029;-52
2023/12/28 12:45:22;;;;;;;37.58;27.65;;;;;;;;;;5010305;28;20376;-51
2023/12/28 12:47:48;;;;;;;36.38;27.27;;;;;;;;;;5027066;28;20072;-48
2023/12/28 12:50:15;;;;;;;37.08;27.17;;;;;;;;;;5029622;28;20026;-51
2023/12/28 12:52:45;;;;;;;36.53;27.02;;;;;;;;;;5028674;28;20111;-49
2023/12/28 12:55:12;;;;;;;29.75;24.92;;;;;;;;;;5028964;28;20068;-51
2023/12/28 12:57:38;;;;;;;40.90;26.50;;;;;;;;;;5028754;28;20040;-52
2023/12/28 13:00:08;;;;;;;32.28;24.23;;;;;;;;;;5010402;28;20084;-50
2023/12/28 13:02:38;;;;;;;34.30;24.50;;;;;;;;;;5029817;28;20076;-47
2023/12/28 13:05:05;;;;;;;34.22;24.10;;;;;;;;;;5019945;28;20518;-48
2023/12/28 13:07:32;;;;;;;33.40;23.38;;;;;;;;;;5028312;28;20021;-49
2023/12/28 13:09:58;;;;;;;28.50;23.38;;;;;;;;;;5028311;28;20585;-47
2023/12/28 13:12:24;;;;;;;28.60;22.27;;;;;;;;;;5011392;28;20044;-47
2023/12/28 13:14:51;;;;;;;33.88;23.77;;;;;;;;;;5027095;28;20566;-48
2023/12/28 13:17:17;;;;;;;28.08;22.13;;;;;;;;;;5016424;28;20037;-48
2023/12/28 13:19:43;;;;;;;29.47;22.73;;;;;;;;;;5028273;28;20100;-47
2023/12/28 13:22:10;;;;;;;35.45;21.65;;;;;;;;;;5026765;28;20034;-47
2023/12/28 13:24:36;;;;;;;27.55;19.95;;;;;;;;;;5014688;28;20088;-48
2023/12/28 13:27:03;;;;;;;30.13;20.27;;;;;;;;;;5019283;28;20025;-50
2023/12/28 13:29:29;;;;;;;24.13;17.15;;;;;;;;;;5008748;28;20128;-48
2023/12/28 13:31:56;;;;;;;21.33;16.42;;;;;;;;;;5024804;28;20064;-49
2023/12/28 13:34:22;;;;;;;21.80;15.23;;;;;;;;;;5022290;28;20037;-47
2023/12/28 13:36:49;;;;;;;23.20;17.75;;;;;;;;;;5013808;28;20069;-47
2023/12/28 13:39:15;;;;;;;24.92;19.90;;;;;;;;;;5027633;28;20037;-48
2023/12/28 13:41:42;;;;;;;59.30;44.40;;;;;;;;;;5013802;28;20038;-47
2023/12/28 13:44:12;;;;;;;25.88;19.05;;;;;;;;;;5015850;28;20112;-47
2023/12/28 13:46:39;;;;;;;30.20;20.60;;;;;;;;;;5019187;28;20447;-47
2023/12/28 13:49:07;;;;;;;26.33;18.60;;;;;;;;;;5028814;28;20036;-48
2023/12/28 13:51:33;;;;;;;26.65;17.98;;;;;;;;;;5031881;28;20025;-49
2023/12/28 13:54:00;;;;;;;27.38;18.95;;;;;;;;;;5031612;28;20029;-49
2023/12/28 13:56:26;;;;;;;26.50;18.50;;;;;;;;;;5033311;28;20042;-50
2023/12/28 13:58:52;;;;;;;30.23;19.58;;;;;;;;;;5023524;28;20049;-47
2023/12/28 14:01:18;;;;;;;27.67;20.17;;;;;;;;;;5015727;28;20056;-47
2023/12/28 14:03:45;;;;;;;27.90;19.48;;;;;;;;;;5027192;28;20022;-48
2023/12/28 14:06:11;;;;;;;25.02;19.30;;;;;;;;;;5014255;28;20080;-48
2023/12/28 14:08:38;;;;;;;26.97;17.83;;;;;;;;;;5013544;28;20550;-48
2023/12/28 14:11:04;;;;;;;26.20;18.17;;;;;;;;;;5014432;28;20118;-48
2023/12/28 14:13:31;;;;;;;24.90;18.33;;;;;;;;;;5012727;28;20045;-48
2023/12/28 14:15:57;;;;;;;22.23;17.85;;;;;;;;;;5014583;28;20032;-49